createdAt,value
2023-04-08T00:02:16.362Z,102263.44
2023-04-08T00:04:45.560Z,102290.59
2023-04-08T00:07:12.522Z,102209.56
2023-04-08T00:09:39.371Z,102291.34
2023-04-08T00:12:09.461Z,102263.31
2023-04-08T00:14:38.522Z,102292.00
2023-04-08T00:17:05.249Z,102283.06
2023-04-08T00:19:36.173Z,102270.75
2023-04-08T00:22:05.632Z,102251.69
2023-04-08T00:24:34.765Z,102276.09
2023-04-08T00:27:02.947Z,102289.38
2023-04-08T00:29:29.737Z,102288.50
2023-04-08T00:31:56.743Z,102275.41
2023-04-08T00:34:26.210Z,102275.41
2023-04-08T00:36:56.507Z,102278.38
2023-04-08T00:39:25.814Z,102287.44
2023-04-08T00:41:52.727Z,102277.81
2023-04-08T00:44:21.594Z,102283.06
2023-04-08T00:46:48.887Z,102287.44
2023-04-08T00:49:17.972Z,102285.56
2023-04-08T00:51:44.800Z,102281.44
2023-04-08T00:54:11.674Z,102293.75
2023-04-08T00:56:38.715Z,102291.88
2023-04-08T00:59:06.146Z,102275.31
2023-04-08T01:01:45.258Z,102295.50
2023-04-08T01:04:31.721Z,102294.59
2023-04-08T01:07:33.880Z,102297.22
2023-04-08T01:10:08.233Z,102295.28
2023-04-08T01:12:42.484Z,102280.56
2023-04-08T01:15:12.313Z,102292.00
2023-04-08T01:17:41.890Z,102291.78
2023-04-08T01:20:09.960Z,102298.00
2023-04-08T01:23:02.059Z,102298.97
2023-04-08T01:25:35.853Z,102295.59
2023-04-08T01:28:09.204Z,102300.63
2023-04-08T01:30:41.098Z,102128.00
2023-04-08T01:33:08.570Z,102279.88
2023-04-08T01:35:38.526Z,102297.31
2023-04-08T01:38:11.924Z,102309.19
2023-04-08T01:40:41.282Z,102306.56
2023-04-08T01:43:10.172Z,102305.69
2023-04-08T01:45:39.362Z,102296.00
2023-04-08T01:48:09.449Z,102294.56
2023-04-08T01:50:38.076Z,102297.28
2023-04-08T01:53:06.254Z,102311.47
2023-04-08T01:55:36.749Z,102302.06
2023-04-08T01:58:07.350Z,102184.84
2023-04-08T02:00:39.910Z,102281.91
2023-04-08T02:03:08.526Z,102291.06
2023-04-08T02:05:35.488Z,102309.81
2023-04-08T02:08:02.469Z,102299.22
2023-04-08T02:10:31.599Z,102310.88
2023-04-08T02:12:58.341Z,102314.69
2023-04-08T02:15:32.168Z,102307.59
2023-04-08T02:18:09.203Z,102303.47
2023-04-08T02:20:44.321Z,102319.59
2023-04-08T02:23:18.202Z,102286.22
2023-04-08T02:25:47.158Z,102270.91
2023-04-08T02:28:16.023Z,102313.78
2023-04-08T02:30:44.593Z,102305.16
2023-04-08T02:33:14.217Z,102320.59
2023-04-08T02:35:42.206Z,102313.75
2023-04-08T02:38:10.953Z,102318.50
2023-04-08T02:40:37.912Z,102316.50
2023-04-08T02:43:04.768Z,102307.28
2023-04-08T02:45:37.807Z,102312.63
2023-04-08T02:48:06.578Z,102288.09
2023-04-08T02:50:36.256Z,102321.66
2023-04-08T02:53:03.019Z,102315.38
2023-04-08T02:55:29.939Z,102324.59
2023-04-08T02:57:56.800Z,102333.63
2023-04-08T03:00:23.829Z,102346.16
2023-04-08T03:02:50.920Z,102318.00
2023-04-08T03:05:18.203Z,102319.53
2023-04-08T03:07:47.514Z,102332.66
2023-04-08T03:10:14.499Z,102334.31
2023-04-08T03:12:41.493Z,102344.19
2023-04-08T03:15:11.562Z,102338.97
2023-04-08T03:17:38.376Z,102325.97
2023-04-08T03:20:06.414Z,102340.25
2023-04-08T03:22:34.339Z,102332.94
2023-04-08T03:25:01.304Z,102330.41
2023-04-08T03:27:30.197Z,102346.34
2023-04-08T03:29:59.545Z,102336.75
2023-04-08T03:32:29.337Z,102337.53
2023-04-08T03:34:56.201Z,102343.06
2023-04-08T03:37:23.216Z,102346.53
2023-04-08T03:39:50.184Z,102296.19
2023-04-08T03:42:16.989Z,102337.81
2023-04-08T03:44:43.829Z,102345.09
2023-04-08T03:47:12.905Z,102322.38
2023-04-08T03:49:42.024Z,102345.09
2023-04-08T03:52:08.940Z,102348.97
2023-04-08T03:54:35.789Z,102335.84
2023-04-08T03:57:02.416Z,102312.28
2023-04-08T03:59:34.212Z,102344.72
2023-04-08T04:02:01.078Z,102355.16
2023-04-08T04:04:27.995Z,102357.22
2023-04-08T04:06:54.753Z,102359.94
2023-04-08T04:09:21.440Z,102358.41
2023-04-08T04:11:48.276Z,102354.69
2023-04-08T04:14:15.008Z,102348.88
2023-04-08T04:16:43.840Z,102357.50
2023-04-08T04:19:10.608Z,102342.84
2023-04-08T04:21:39.689Z,102258.88
2023-04-08T04:24:06.726Z,102346.94
2023-04-08T04:26:33.446Z,102327.81
2023-04-08T04:29:00.474Z,102387.81
2023-04-08T04:31:30.325Z,102375.63
2023-04-08T04:33:57.268Z,102388.00
2023-04-08T04:36:26.554Z,102365.25
2023-04-08T04:38:53.935Z,102392.44
2023-04-08T04:41:22.075Z,102348.06
2023-04-08T04:43:48.957Z,102384.78
2023-04-08T04:46:20.637Z,102362.13
2023-04-08T04:48:50.374Z,102401.66
2023-04-08T04:51:20.917Z,102395.53
2023-04-08T04:53:50.283Z,102354.66
2023-04-08T04:56:17.239Z,102407.00
2023-04-08T04:58:46.834Z,102385.16
2023-04-08T05:01:18.385Z,102404.56
2023-04-08T05:03:48.370Z,102413.22
2023-04-08T05:06:15.756Z,102416.81
2023-04-08T05:08:42.633Z,102395.94
2023-04-08T05:11:10.958Z,102418.56
2023-04-08T05:13:41.999Z,102418.47
2023-04-08T05:16:10.303Z,102418.47
2023-04-08T05:18:39.975Z,102425.63
2023-04-08T05:21:08.812Z,102429.25
2023-04-08T05:23:36.085Z,102430.19
2023-04-08T05:26:02.927Z,102413.69
2023-04-08T05:28:29.804Z,102437.41
2023-04-08T05:30:56.741Z,102437.41
2023-04-08T05:33:23.582Z,102432.72
2023-04-08T05:35:55.164Z,102420.28
2023-04-08T05:38:21.916Z,102416.81
2023-04-08T05:40:48.607Z,102427.41
2023-04-08T05:43:17.760Z,102437.97
2023-04-08T05:45:44.840Z,102430.97
2023-04-08T05:48:11.964Z,102443.41
2023-04-08T05:50:41.070Z,102391.31
2023-04-08T05:53:07.852Z,102411.75
2023-04-08T05:55:49.048Z,102422.59
2023-04-08T05:58:28.704Z,102450.81
2023-04-08T06:00:55.704Z,102452.53
2023-04-08T06:03:23.029Z,102454.38
2023-04-08T06:05:50.315Z,102463.59
2023-04-08T06:08:19.873Z,102442.53
2023-04-08T06:10:52.843Z,102472.22
2023-04-08T06:13:21.157Z,102448.41
2023-04-08T06:15:51.127Z,102455.88
2023-04-08T06:18:17.935Z,102335.88
2023-04-08T06:20:44.759Z,102462.97
2023-04-08T06:23:11.717Z,102461.22
2023-04-08T06:25:38.541Z,102456.56
2023-04-08T06:28:05.430Z,102355.13
2023-04-08T06:30:32.294Z,102472.91
2023-04-08T06:32:59.675Z,102483.59
2023-04-08T06:35:33.330Z,102492.72
2023-04-08T06:38:03.471Z,102476.09
2023-04-08T06:40:32.914Z,102469.59
2023-04-08T06:42:59.628Z,102494.97
2023-04-08T06:45:26.497Z,102492.84
2023-04-08T06:47:53.444Z,102489.81
2023-04-08T06:50:20.557Z,102502.16
2023-04-08T06:52:53.243Z,102504.00
2023-04-08T06:55:20.006Z,102508.28
2023-04-08T06:57:46.815Z,102498.75
2023-04-08T07:00:13.965Z,102497.88
2023-04-08T07:02:41.150Z,102512.75
2023-04-08T07:05:11.396Z,102511.97
2023-04-08T07:07:40.450Z,102491.06
2023-04-08T07:10:11.117Z,102497.41
2023-04-08T07:12:38.089Z,102522.66
2023-04-08T07:15:05.234Z,102526.63
2023-04-08T07:17:32.571Z,102532.78
2023-04-08T07:19:59.487Z,102539.59
2023-04-08T07:22:26.214Z,102538.34
2023-04-08T07:24:53.021Z,102541.25
2023-04-08T07:27:19.804Z,102537.16
2023-04-08T07:29:46.627Z,102538.72
2023-04-08T07:32:16.294Z,102546.09
2023-04-08T07:34:45.649Z,102530.25
2023-04-08T07:37:12.323Z,102543.34
2023-04-08T07:39:39.134Z,102542.78
2023-04-08T07:42:06.141Z,102555.13
2023-04-08T07:44:41.245Z,102556.50
2023-04-08T07:47:13.995Z,102557.47
2023-04-08T07:49:50.778Z,102561.16
2023-04-08T07:52:21.569Z,102557.56
2023-04-08T07:54:55.016Z,102566.84
2023-04-08T07:57:23.479Z,102565.91
2023-04-08T07:59:50.664Z,102543.00
2023-04-08T08:02:19.798Z,102558.06
2023-04-08T08:04:46.632Z,102531.03
2023-04-08T08:07:13.468Z,102574.66
2023-04-08T08:09:40.145Z,102573.25
2023-04-08T08:12:07.092Z,102561.06
2023-04-08T08:14:33.767Z,102574.38
2023-04-08T08:17:01.669Z,102583.31
2023-04-08T08:19:30.850Z,102544.63
2023-04-08T08:21:58.051Z,102591.47
2023-04-08T08:24:26.028Z,102581.72
2023-04-08T08:26:55.612Z,102591.38
2023-04-08T08:29:22.229Z,102574.16
2023-04-08T08:31:48.923Z,102585.38
2023-04-08T08:34:17.719Z,102590.50
2023-04-08T08:36:44.389Z,102569.41
2023-04-08T08:39:13.455Z,102601.19
2023-04-08T08:41:41.254Z,102587.38
2023-04-08T08:44:11.116Z,102599.38
2023-04-08T08:46:42.528Z,102598.78
2023-04-08T08:49:09.140Z,102597.53
2023-04-08T08:51:36.272Z,102602.59
2023-04-08T08:54:06.609Z,102612.97
2023-04-08T08:56:34.466Z,102614.34
2023-04-08T08:59:01.203Z,102612.19
2023-04-08T09:01:38.367Z,102614.53
2023-04-08T09:04:19.917Z,102617.25
2023-04-08T09:06:52.674Z,102613.53
2023-04-08T09:09:21.603Z,102624.16
2023-04-08T09:11:48.204Z,102615.97
2023-04-08T09:14:25.615Z,102626.28
2023-04-08T09:16:53.025Z,102623.84
2023-04-08T09:19:19.823Z,102625.59
2023-04-08T09:22:04.129Z,102633.22
2023-04-08T09:24:32.127Z,102629.41
2023-04-08T09:26:58.908Z,102630.72
2023-04-08T09:29:29.861Z,102631.94
2023-04-08T09:32:01.556Z,102625.19
2023-04-08T09:34:30.870Z,102597.56
2023-04-08T09:36:57.482Z,102587.50
2023-04-08T09:39:24.433Z,102612.72
2023-04-08T09:41:52.388Z,102627.81
2023-04-08T09:44:26.646Z,102623.56
2023-04-08T09:47:08.449Z,102617.56
2023-04-08T09:49:46.987Z,102632.72
2023-04-08T09:52:33.599Z,102625.75
2023-04-08T09:55:09.332Z,102600.25
2023-04-08T09:57:43.389Z,102635.03
2023-04-08T10:00:17.526Z,102644.25
2023-04-08T10:02:53.908Z,102646.78
2023-04-08T10:05:22.374Z,102647.69
2023-04-08T10:07:55.230Z,102646.56
2023-04-08T10:10:29.063Z,102609.13
2023-04-08T10:12:56.912Z,102639.19
2023-04-08T10:15:26.820Z,102642.69
2023-04-08T10:17:57.365Z,102644.66
2023-04-08T10:21:03.441Z,102642.28
2023-04-08T10:23:55.600Z,102648.09
2023-04-08T10:26:35.524Z,102650.78
2023-04-08T10:29:27.272Z,102649.91
2023-04-08T10:31:55.932Z,102630.63
2023-04-08T10:34:27.038Z,102632.13
2023-04-08T10:37:00.357Z,102633.56
2023-04-08T10:39:27.847Z,102627.59
2023-04-08T10:41:54.947Z,102608.16
2023-04-08T10:44:24.726Z,102613.69
2023-04-08T10:46:56.499Z,102610.69
2023-04-08T10:49:34.130Z,102609.53
2023-04-08T10:52:01.031Z,102579.72
2023-04-08T10:54:29.319Z,102598.56
2023-04-08T10:56:56.215Z,102614.31
2023-04-08T10:59:34.924Z,102609.22
2023-04-08T11:02:02.639Z,102607.72
2023-04-08T11:04:35.016Z,102603.00
2023-04-08T11:07:09.298Z,102606.75
2023-04-08T11:09:37.930Z,102599.38
2023-04-08T11:12:04.826Z,102571.59
2023-04-08T11:14:33.293Z,102591.25
2023-04-08T11:17:02.841Z,102606.13
2023-04-08T11:19:33.142Z,102607.09
2023-04-08T11:22:01.356Z,102605.25
2023-04-08T11:24:30.393Z,102601.41
2023-04-08T11:26:58.031Z,102597.03
2023-04-08T11:29:25.611Z,102597.53
2023-04-08T11:31:53.391Z,102597.13
2023-04-08T11:34:24.692Z,102603.59
2023-04-08T11:36:55.506Z,102593.53
2023-04-08T11:39:26.432Z,102583.72
2023-04-08T11:41:53.297Z,102599.34
2023-04-08T11:44:19.920Z,102578.72
2023-04-08T11:46:57.278Z,102594.50
2023-04-08T11:49:24.296Z,102599.44
2023-04-08T11:51:59.404Z,102596.63
2023-04-08T11:54:30.617Z,102590.28
2023-04-08T11:56:58.438Z,102588.03
2023-04-08T11:59:27.433Z,102580.00
2023-04-08T12:01:56.080Z,102585.84
2023-04-08T12:04:22.905Z,102577.16
2023-04-08T12:06:52.443Z,102573.97
2023-04-08T12:09:19.391Z,102574.22
2023-04-08T12:11:48.540Z,102582.34
2023-04-08T12:14:15.278Z,102581.59
2023-04-08T12:16:41.953Z,102538.03
2023-04-08T12:19:10.118Z,102593.78
2023-04-08T12:21:36.808Z,102578.28
2023-04-08T12:24:03.471Z,102576.31
2023-04-08T12:26:32.350Z,102577.94
2023-04-08T12:28:58.913Z,102577.41
2023-04-08T12:31:28.543Z,102590.03
2023-04-08T12:33:55.245Z,102580.72
2023-04-08T12:36:24.858Z,102581.59
2023-04-08T12:38:54.120Z,102581.19
2023-04-08T12:41:20.664Z,102576.03
2023-04-08T12:43:47.231Z,102576.06
2023-04-08T12:46:13.831Z,102580.22
2023-04-08T12:48:40.933Z,102569.91
2023-04-08T12:51:10.267Z,102540.00
2023-04-08T12:53:36.921Z,102561.50
2023-04-08T12:56:03.746Z,102547.31
2023-04-08T12:58:30.638Z,102566.75
2023-04-08T13:00:57.289Z,102566.75
2023-04-08T13:03:24.082Z,102553.13
2023-04-08T13:05:55.585Z,102553.28
2023-04-08T13:08:22.369Z,102558.50
2023-04-08T13:10:49.070Z,102549.78
2023-04-08T13:13:18.631Z,102552.59
2023-04-08T13:15:47.830Z,102553.47
2023-04-08T13:18:17.099Z,102547.53
2023-04-08T13:20:43.711Z,102553.19
2023-04-08T13:23:10.445Z,102550.84
2023-04-08T13:25:39.294Z,102537.97
2023-04-08T13:28:06.043Z,102545.81
2023-04-08T13:30:32.624Z,102548.41
2023-04-08T13:32:59.266Z,102555.38
2023-04-08T13:35:29.054Z,102548.13
2023-04-08T13:37:58.193Z,102555.06
2023-04-08T13:40:27.175Z,102545.81
2023-04-08T13:42:54.410Z,102536.03
2023-04-08T13:45:21.960Z,102552.09
2023-04-08T13:47:50.173Z,102541.97
2023-04-08T13:50:17.190Z,102542.69
2023-04-08T13:52:46.554Z,102528.16
2023-04-08T13:55:16.936Z,102544.13
2023-04-08T13:57:47.118Z,102542.97
2023-04-08T14:00:14.903Z,102555.56
2023-04-08T14:02:43.032Z,102543.84
2023-04-08T14:05:10.976Z,102548.19
2023-04-08T14:07:38.544Z,102544.66
2023-04-08T14:10:09.863Z,102544.53
2023-04-08T14:12:37.225Z,102500.59
2023-04-08T14:15:05.310Z,102543.88
2023-04-08T14:17:36.089Z,102515.91
2023-04-08T14:20:06.829Z,102539.88
2023-04-08T14:22:34.004Z,102534.81
2023-04-08T14:25:01.228Z,102527.00
2023-04-08T14:27:30.123Z,102395.84
2023-04-08T14:29:56.759Z,102529.56
2023-04-08T14:32:25.641Z,102528.72
2023-04-08T14:34:52.314Z,102518.69
2023-04-08T14:37:21.112Z,102521.13
2023-04-08T14:39:47.678Z,102525.63
2023-04-08T14:42:17.202Z,102527.50
2023-04-08T14:44:44.322Z,102526.13
2023-04-08T14:47:12.343Z,102529.47
2023-04-08T14:49:39.802Z,102518.44
2023-04-08T14:52:06.427Z,102515.13
2023-04-08T14:54:33.076Z,102519.16
2023-04-08T14:56:59.612Z,102522.78
2023-04-08T14:59:26.228Z,102520.31
2023-04-08T15:01:52.925Z,102501.34
2023-04-08T15:04:19.541Z,102518.88
2023-04-08T15:06:46.223Z,102502.56
2023-04-08T15:09:13.140Z,102513.53
2023-04-08T15:11:39.741Z,102511.22
2023-04-08T15:14:06.372Z,102503.91
2023-04-08T15:16:33.198Z,102463.34
2023-04-08T15:19:00.574Z,102500.84
2023-04-08T15:21:27.378Z,102493.59
2023-04-08T15:23:55.996Z,102506.97
2023-04-08T15:26:25.439Z,102498.59
2023-04-08T15:28:54.909Z,102504.81
2023-04-08T15:31:22.441Z,102506.69
2023-04-08T15:33:50.100Z,102505.09
2023-04-08T15:36:21.272Z,102507.16
2023-04-08T15:38:50.194Z,102510.38
2023-04-08T15:41:21.726Z,102507.34
2023-04-08T15:43:54.578Z,102515.59
2023-04-08T15:46:22.822Z,102509.66
2023-04-08T15:48:51.032Z,102502.13
2023-04-08T15:51:18.271Z,102504.88
2023-04-08T15:53:46.250Z,102516.91
2023-04-08T15:56:16.767Z,102514.41
2023-04-08T15:58:44.929Z,102506.44
2023-04-08T16:01:12.518Z,102495.72
2023-04-08T16:03:40.730Z,102465.13
2023-04-08T16:06:10.334Z,102520.59
2023-04-08T16:08:37.238Z,102520.47
2023-04-08T16:11:08.860Z,102523.06
2023-04-08T16:13:35.603Z,102528.28
2023-04-08T16:16:02.888Z,102527.50
2023-04-08T16:18:34.344Z,102482.56
2023-04-08T16:21:04.659Z,102516.16
2023-04-08T16:23:31.495Z,102530.75
2023-04-08T16:25:58.181Z,102528.91
2023-04-08T16:28:27.549Z,102533.81
2023-04-08T16:30:54.729Z,102537.13
2023-04-08T16:33:30.047Z,102523.03
2023-04-08T16:36:01.483Z,102531.53
2023-04-08T16:38:29.186Z,102526.00
2023-04-08T16:40:59.871Z,102533.06
2023-04-08T16:43:26.812Z,102512.59
2023-04-08T16:45:54.855Z,102511.38
2023-04-08T16:48:23.897Z,102535.56
2023-04-08T16:50:52.494Z,102532.63
2023-04-08T16:53:19.249Z,102530.69
2023-04-08T16:55:47.334Z,102540.94
2023-04-08T16:58:14.080Z,102523.78
2023-04-08T17:00:43.703Z,102535.91
2023-04-08T17:03:10.943Z,102530.59
2023-04-08T17:05:41.739Z,102541.13
2023-04-08T17:08:08.673Z,102540.19
2023-04-08T17:10:35.218Z,102522.44
2023-04-08T17:13:02.272Z,102514.63
2023-04-08T17:15:31.548Z,102551.00
2023-04-08T17:17:58.225Z,102549.78
2023-04-08T17:20:26.517Z,102549.78
2023-04-08T17:22:56.277Z,102538.72
2023-04-08T17:25:23.960Z,102538.16
2023-04-08T17:27:50.512Z,102553.75
2023-04-08T17:30:17.177Z,102553.91
2023-04-08T17:32:44.345Z,102552.78
2023-04-08T17:35:11.858Z,102554.31
2023-04-08T17:37:39.303Z,102552.78
2023-04-08T17:40:08.032Z,102549.78
2023-04-08T17:42:35.241Z,102558.53
2023-04-08T17:45:03.124Z,102550.03
2023-04-08T17:47:31.144Z,102556.03
2023-04-08T17:49:58.547Z,102545.22
2023-04-08T17:52:25.622Z,102546.44
2023-04-08T17:54:54.024Z,102524.41
2023-04-08T17:57:20.965Z,102552.81
2023-04-08T17:59:48.449Z,102547.81
2023-04-08T18:02:15.493Z,102533.72
2023-04-08T18:04:43.691Z,102556.00
2023-04-08T18:07:12.057Z,102545.91
2023-04-08T18:09:39.032Z,102555.09
2023-04-08T18:12:06.892Z,102539.16
2023-04-08T18:14:36.104Z,102551.59
2023-04-08T18:17:03.585Z,102541.97
2023-04-08T18:19:30.535Z,102570.59
2023-04-08T18:21:57.091Z,102562.22
2023-04-08T18:24:24.092Z,102563.34
2023-04-08T18:27:01.505Z,102555.97
2023-04-08T18:29:30.416Z,102579.84
2023-04-08T18:31:59.358Z,102573.69
2023-04-08T18:34:26.711Z,102568.81
2023-04-08T18:36:53.628Z,102570.88
2023-04-08T18:39:20.474Z,102575.72
2023-04-08T18:41:47.115Z,102587.22
2023-04-08T18:44:13.802Z,102586.81
2023-04-08T18:46:40.578Z,102592.50
2023-04-08T18:49:07.215Z,102589.59
2023-04-08T18:51:36.430Z,102544.66
2023-04-08T18:54:03.113Z,102597.25
2023-04-08T18:56:32.233Z,102591.16
2023-04-08T18:58:58.801Z,102583.63
2023-04-08T19:01:30.041Z,102584.84
2023-04-08T19:03:56.905Z,102606.38
2023-04-08T19:06:23.726Z,102572.81
2023-04-08T19:08:50.380Z,102609.34
2023-04-08T19:11:17.018Z,102550.69
2023-04-08T19:13:45.902Z,102597.50
2023-04-08T19:16:12.846Z,102609.34
2023-04-08T19:18:41.672Z,102613.69
2023-04-08T19:21:11.752Z,102610.19
2023-04-08T19:23:38.395Z,102609.22
2023-04-08T19:26:08.732Z,102565.78
2023-04-08T19:28:37.740Z,102616.72
2023-04-08T19:31:04.654Z,102614.47
2023-04-08T19:33:31.394Z,102595.88
2023-04-08T19:35:57.980Z,102615.19
2023-04-08T19:38:26.954Z,102603.84
2023-04-08T19:40:56.080Z,102588.13
2023-04-08T19:43:22.855Z,102612.34
2023-04-08T19:45:55.896Z,102612.97
2023-04-08T19:48:26.113Z,102600.75
2023-04-08T19:50:52.897Z,102612.75
2023-04-08T19:53:19.507Z,102604.44
2023-04-08T19:55:48.660Z,102604.44
2023-04-08T19:58:16.015Z,102607.28
2023-04-08T20:00:42.713Z,102607.94
2023-04-08T20:03:09.550Z,102594.06
2023-04-08T20:05:36.830Z,102613.41
2023-04-08T20:08:03.830Z,102614.25
2023-04-08T20:10:32.647Z,102612.41
2023-04-08T20:12:59.279Z,102597.91
2023-04-08T20:15:25.963Z,102621.72
2023-04-08T20:17:53.328Z,102612.66
2023-04-08T20:20:23.075Z,102615.16
2023-04-08T20:22:50.420Z,102612.13
2023-04-08T20:25:17.965Z,102602.50
2023-04-08T20:27:44.691Z,102621.47
2023-04-08T20:30:12.381Z,102587.66
2023-04-08T20:32:39.009Z,102618.22
2023-04-08T20:35:05.884Z,102625.31
2023-04-08T20:37:35.715Z,102609.72
2023-04-08T20:40:02.602Z,102629.16
2023-04-08T20:42:29.264Z,102630.25
2023-04-08T20:44:56.036Z,102619.75
2023-04-08T20:47:22.675Z,102627.44
2023-04-08T20:49:49.719Z,102628.06
2023-04-08T20:52:16.513Z,102624.06
2023-04-08T20:54:45.492Z,102629.19
2023-04-08T20:57:12.126Z,102618.91
2023-04-08T20:59:38.729Z,102631.28
2023-04-08T21:02:06.255Z,102639.59
2023-04-08T21:04:36.075Z,102601.03
2023-04-08T21:07:02.977Z,102638.06
2023-04-08T21:09:30.062Z,102631.19
2023-04-08T21:11:56.760Z,102634.78
2023-04-08T21:14:31.147Z,102547.13
2023-04-08T21:16:58.468Z,102640.47
2023-04-08T21:19:25.358Z,102637.19
2023-04-08T21:21:52.004Z,102631.97
2023-04-08T21:24:18.763Z,102630.97
2023-04-08T21:26:45.540Z,102627.34
2023-04-08T21:29:12.910Z,102646.03
2023-04-08T21:31:41.282Z,102641.91
2023-04-08T21:34:11.018Z,102644.97
2023-04-08T21:36:37.874Z,102654.66
2023-04-08T21:39:07.057Z,102642.88
2023-04-08T21:41:33.777Z,102651.41
2023-04-08T21:44:00.421Z,102641.03
2023-04-08T21:46:27.100Z,102639.28
2023-04-08T21:48:56.465Z,102649.22
2023-04-08T21:51:23.160Z,102645.84
2023-04-08T21:53:50.878Z,102642.47
2023-04-08T21:56:18.643Z,102632.06
2023-04-08T21:58:45.552Z,102648.03
2023-04-08T22:01:12.191Z,102647.38
2023-04-08T22:03:41.523Z,102648.34
2023-04-08T22:06:12.686Z,102638.41
2023-04-08T22:08:43.534Z,102635.03
2023-04-08T22:11:10.257Z,102633.41
2023-04-08T22:13:36.900Z,102538.31
2023-04-08T22:16:06.089Z,102637.41
2023-04-08T22:18:35.407Z,102626.72
2023-04-08T22:21:02.096Z,102635.44
2023-04-08T22:23:28.924Z,102626.72
2023-04-08T22:25:55.794Z,102629.22
2023-04-08T22:28:23.520Z,102630.34
2023-04-08T22:30:50.256Z,102634.69
2023-04-08T22:33:19.217Z,102647.25
2023-04-08T22:35:45.878Z,102632.28
2023-04-08T22:38:12.508Z,102643.09
2023-04-08T22:40:39.270Z,102642.03
2023-04-08T22:43:08.216Z,102621.03
2023-04-08T22:45:37.555Z,102637.63
2023-04-08T22:48:06.747Z,102644.00
2023-04-08T22:50:38.344Z,102643.00
2023-04-08T22:53:07.632Z,102628.47
2023-04-08T22:55:34.274Z,102637.22
2023-04-08T22:58:03.429Z,102630.34
2023-04-08T23:00:30.712Z,102623.34
2023-04-08T23:03:04.811Z,102632.28
2023-04-08T23:05:33.778Z,102635.56
2023-04-08T23:08:02.795Z,102625.97
2023-04-08T23:10:29.495Z,102623.44
2023-04-08T23:12:56.297Z,102617.78
2023-04-08T23:15:23.215Z,102628.03
2023-04-08T23:17:49.841Z,102634.78
2023-04-08T23:20:16.614Z,102624.66
2023-04-08T23:22:45.687Z,102614.59
2023-04-08T23:25:12.331Z,102642.22
2023-04-08T23:27:39.084Z,102629.75
2023-04-08T23:30:06.530Z,102624.19
2023-04-08T23:32:35.145Z,102605.19
2023-04-08T23:35:02.731Z,102619.94
2023-04-08T23:37:29.740Z,102628.25
2023-04-08T23:39:56.381Z,102623.66
2023-04-08T23:42:27.268Z,102627.38
2023-04-08T23:44:54.966Z,102615.25
2023-04-08T23:47:22.134Z,102608.16
2023-04-08T23:49:49.691Z,102621.94
2023-04-08T23:52:18.765Z,102614.06
2023-04-08T23:54:50.342Z,102616.56
2023-04-08T23:57:17.378Z,102617.22
2023-04-08T23:59:44.124Z,102602.59
